sensor_id;sensor_type;location;lat;lon;timestamp;pressure;altitude;pressure_sealevel;temperature;humidity
34073;BME280;20346;52.702;16.886;2022-10-26T00:01:38;101105.81;;;9.65;82.09
34073;BME280;20346;52.702;16.886;2022-10-26T00:04:23;101111.42;;;9.61;81.96
34073;BME280;20346;52.702;16.886;2022-10-26T00:07:08;101114.87;;;9.57;82.00
34073;BME280;20346;52.702;16.886;2022-10-26T00:09:53;101117.03;;;9.56;82.05
34073;BME280;20346;52.702;16.886;2022-10-26T00:12:38;101116.17;;;9.57;82.12
34073;BME280;20346;52.702;16.886;2022-10-26T00:15:23;101117.47;;;9.55;82.13
34073;BME280;20346;52.702;16.886;2022-10-26T00:18:08;101121.77;;;9.56;82.15
34073;BME280;20346;52.702;16.886;2022-10-26T00:20:53;101118.33;;;9.56;82.14
34073;BME280;20346;52.702;16.886;2022-10-26T00:23:38;101120.05;;;9.55;82.11
34073;BME280;20346;52.702;16.886;2022-10-26T00:26:23;101117.89;;;9.55;82.10
34073;BME280;20346;52.702;16.886;2022-10-26T00:29:10;101121.34;;;9.55;82.15
34073;BME280;20346;52.702;16.886;2022-10-26T00:31:55;101120.91;;;9.56;82.15
34073;BME280;20346;52.702;16.886;2022-10-26T00:34:40;101129.08;;;9.57;82.21
34073;BME280;20346;52.702;16.886;2022-10-26T00:37:26;101129.50;;;9.58;82.24
34073;BME280;20346;52.702;16.886;2022-10-26T00:40:11;101124.34;;;9.58;82.17
34073;BME280;20346;52.702;16.886;2022-10-26T00:42:56;101122.64;;;9.52;81.98
34073;BME280;20346;52.702;16.886;2022-10-26T00:45:42;101123.94;;;9.48;82.07
34073;BME280;20346;52.702;16.886;2022-10-26T00:48:40;101129.11;;;9.46;82.13
34073;BME280;20346;52.702;16.886;2022-10-26T00:54:17;101127.84;;;9.40;82.10
34073;BME280;20346;52.702;16.886;2022-10-26T00:57:02;101127.41;;;9.39;82.15
34073;BME280;20346;52.702;16.886;2022-10-26T00:59:48;101127.88;;;9.36;82.08
34073;BME280;20346;52.702;16.886;2022-10-26T01:02:34;101126.59;;;9.34;82.13
34073;BME280;20346;52.702;16.886;2022-10-26T01:05:21;101126.59;;;9.33;82.16
34073;BME280;20346;52.702;16.886;2022-10-26T01:08:06;101132.63;;;9.32;82.11
34073;BME280;20346;52.702;16.886;2022-10-26T01:10:52;101133.92;;;9.30;82.18
34073;BME280;20346;52.702;16.886;2022-10-26T01:13:38;101136.07;;;9.29;82.14
34073;BME280;20346;52.702;16.886;2022-10-26T01:19:59;101135.64;;;9.28;82.22
34073;BME280;20346;52.702;16.886;2022-10-26T01:26:07;101129.63;;;9.27;82.19
34073;BME280;20346;52.702;16.886;2022-10-26T01:32:03;101123.61;;;9.22;82.18
34073;BME280;20346;52.702;16.886;2022-10-26T01:41:21;101129.66;;;9.14;82.15
34073;BME280;20346;52.702;16.886;2022-10-26T01:44:13;101138.69;;;9.12;82.17
34073;BME280;20346;52.702;16.886;2022-10-26T01:47:17;101132.23;;;9.11;82.25
34073;BME280;20346;52.702;16.886;2022-10-26T01:50:05;101126.65;;;9.08;82.16
34073;BME280;20346;52.702;16.886;2022-10-26T01:52:51;101131.81;;;9.07;82.19
34073;BME280;20346;52.702;16.886;2022-10-26T01:55:50;101129.66;;;9.05;82.20
34073;BME280;20346;52.702;16.886;2022-10-26T02:02:21;101136.97;;;9.05;82.22
34073;BME280;20346;52.702;16.886;2022-10-26T02:11:29;101130.11;;;8.90;82.11
34073;BME280;20346;52.702;16.886;2022-10-26T02:14:19;101132.25;;;8.89;82.21
34073;BME280;20346;52.702;16.886;2022-10-26T02:17:22;101129.68;;;8.88;82.14
34073;BME280;20346;52.702;16.886;2022-10-26T02:20:17;101131.83;;;8.84;82.11
34073;BME280;20346;52.702;16.886;2022-10-26T02:23:03;101134.44;;;8.81;82.15
34073;BME280;20346;52.702;16.886;2022-10-26T02:25:54;101133.16;;;8.79;82.17
34073;BME280;20346;52.702;16.886;2022-10-26T02:28:43;101136.16;;;8.77;82.17
34073;BME280;20346;52.702;16.886;2022-10-26T02:31:29;101125.42;;;8.76;82.20
34073;BME280;20346;52.702;16.886;2022-10-26T02:34:19;101131.01;;;8.76;82.26
34073;BME280;20346;52.702;16.886;2022-10-26T02:37:07;101134.87;;;8.74;82.12
34073;BME280;20346;52.702;16.886;2022-10-26T02:39:52;101137.88;;;8.74;82.22
34073;BME280;20346;52.702;16.886;2022-10-26T02:42:42;101133.16;;;8.76;82.35
34073;BME280;20346;52.702;16.886;2022-10-26T02:45:35;101138.74;;;8.77;82.27
34073;BME280;20346;52.702;16.886;2022-10-26T02:48:22;101141.75;;;8.77;82.29
34073;BME280;20346;52.702;16.886;2022-10-26T02:51:33;101139.17;;;8.77;82.31
34073;BME280;20346;52.702;16.886;2022-10-26T02:57:53;101140.46;;;8.77;82.17
34073;BME280;20346;52.702;16.886;2022-10-26T03:00:39;101140.89;;;8.75;82.34
34073;BME280;20346;52.702;16.886;2022-10-26T03:03:26;101138.74;;;8.74;82.39
34073;BME280;20346;52.702;16.886;2022-10-26T03:06:11;101143.90;;;8.73;82.38
34073;BME280;20346;52.702;16.886;2022-10-26T03:08:56;101145.62;;;8.72;82.40
34073;BME280;20346;52.702;16.886;2022-10-26T03:11:41;101147.77;;;8.70;82.39
34073;BME280;20346;52.702;16.886;2022-10-26T03:14:26;101149.48;;;8.66;82.40
34073;BME280;20346;52.702;16.886;2022-10-26T03:17:11;101148.19;;;8.65;82.49
34073;BME280;20346;52.702;16.886;2022-10-26T03:19:56;101149.91;;;8.66;82.48
34073;BME280;20346;52.702;16.886;2022-10-26T03:22:42;101149.05;;;8.63;82.43
34073;BME280;20346;52.702;16.886;2022-10-26T03:25:26;101152.48;;;8.62;82.45
34073;BME280;20346;52.702;16.886;2022-10-26T03:28:12;101157.64;;;8.62;82.46
34073;BME280;20346;52.702;16.886;2022-10-26T03:30:57;101158.93;;;8.62;82.47
34073;BME280;20346;52.702;16.886;2022-10-26T03:33:42;101162.37;;;8.63;82.45
34073;BME280;20346;52.702;16.886;2022-10-26T03:36:27;101161.08;;;8.60;82.47
34073;BME280;20346;52.702;16.886;2022-10-26T03:39:13;101163.22;;;8.60;82.54
34073;BME280;20346;52.702;16.886;2022-10-26T03:41:58;101159.36;;;8.62;82.61
34073;BME280;20346;52.702;16.886;2022-10-26T03:44:44;101163.23;;;8.65;82.69
34073;BME280;20346;52.702;16.886;2022-10-26T03:47:30;101159.80;;;8.69;82.71
34073;BME280;20346;52.702;16.886;2022-10-26T03:50:18;101164.52;;;8.71;82.78
34073;BME280;20346;52.702;16.886;2022-10-26T03:53:04;101166.67;;;8.75;82.74
34073;BME280;20346;52.702;16.886;2022-10-26T03:55:49;101163.23;;;8.79;82.76
34073;BME280;20346;52.702;16.886;2022-10-26T03:58:34;101163.23;;;8.82;82.76
34073;BME280;20346;52.702;16.886;2022-10-26T04:01:19;101167.53;;;8.81;82.60
34073;BME280;20346;52.702;16.886;2022-10-26T04:04:05;101169.25;;;8.82;82.69
34073;BME280;20346;52.702;16.886;2022-10-26T04:06:49;101175.23;;;8.86;82.77
34073;BME280;20346;52.702;16.886;2022-10-26T04:09:34;101169.22;;;8.88;82.75
34073;BME280;20346;52.702;16.886;2022-10-26T04:12:19;101161.91;;;8.91;82.78
34073;BME280;20346;52.702;16.886;2022-10-26T04:15:05;101162.77;;;8.91;82.76
34073;BME280;20346;52.702;16.886;2022-10-26T04:17:58;101162.77;;;8.90;82.73
34073;BME280;20346;52.702;16.886;2022-10-26T04:20:44;101166.22;;;8.90;82.82
34073;BME280;20346;52.702;16.886;2022-10-26T04:23:29;101170.08;;;8.93;82.84
34073;BME280;20346;52.702;16.886;2022-10-26T04:26:14;101169.22;;;8.94;82.83
34073;BME280;20346;52.702;16.886;2022-10-26T04:28:59;101164.06;;;8.94;82.83
34073;BME280;20346;52.702;16.886;2022-10-26T04:31:44;101170.94;;;8.94;82.88
34073;BME280;20346;52.702;16.886;2022-10-26T04:34:29;101174.81;;;8.97;82.93
34073;BME280;20346;52.702;16.886;2022-10-26T04:37:14;101172.23;;;8.94;82.88
34073;BME280;20346;52.702;16.886;2022-10-26T04:39:59;101168.36;;;8.94;82.97
34073;BME280;20346;52.702;16.886;2022-10-26T04:42:45;101168.36;;;8.95;83.00
34073;BME280;20346;52.702;16.886;2022-10-26T04:45:31;101168.36;;;8.95;83.00
34073;BME280;20346;52.702;16.886;2022-10-26T04:48:16;101171.80;;;8.99;83.05
34073;BME280;20346;52.702;16.886;2022-10-26T04:51:01;101169.22;;;8.99;83.03
34073;BME280;20346;52.702;16.886;2022-10-26T04:53:46;101168.36;;;8.97;83.00
34073;BME280;20346;52.702;16.886;2022-10-26T04:56:31;101164.49;;;8.99;83.05
34073;BME280;20346;52.702;16.886;2022-10-26T04:59:17;101167.93;;;8.99;83.09
34073;BME280;20346;52.702;16.886;2022-10-26T05:02:02;101170.51;;;9.01;83.11
34073;BME280;20346;52.702;16.886;2022-10-26T05:04:47;101169.65;;;9.02;83.10
34073;BME280;20346;52.702;16.886;2022-10-26T05:07:32;101174.81;;;9.03;83.13
34073;BME280;20346;52.702;16.886;2022-10-26T05:10:17;101174.38;;;9.04;83.16
34073;BME280;20346;52.702;16.886;2022-10-26T05:13:02;101173.52;;;9.03;83.13
34073;BME280;20346;52.702;16.886;2022-10-26T05:15:47;101173.52;;;9.03;83.19
34073;BME280;20346;52.702;16.886;2022-10-26T05:18:32;101173.52;;;9.05;83.23
34073;BME280;20346;52.702;16.886;2022-10-26T05:21:17;101173.95;;;9.07;83.27
34073;BME280;20346;52.702;16.886;2022-10-26T05:24:05;101180.39;;;9.09;83.28
34073;BME280;20346;52.702;16.886;2022-10-26T05:26:50;101181.69;;;9.10;83.27
34073;BME280;20346;52.702;16.886;2022-10-26T05:29:35;101189.42;;;9.10;83.30
34073;BME280;20346;52.702;16.886;2022-10-26T05:32:20;101192.43;;;9.11;83.29
34073;BME280;20346;52.702;16.886;2022-10-26T05:35:06;101196.73;;;9.12;83.33
34073;BME280;20346;52.702;16.886;2022-10-26T05:37:52;101197.59;;;9.10;83.30
34073;BME280;20346;52.702;16.886;2022-10-26T05:40:37;101201.03;;;9.10;83.36
34073;BME280;20346;52.702;16.886;2022-10-26T05:43:23;101201.03;;;9.10;83.40
34073;BME280;20346;52.702;16.886;2022-10-26T05:46:08;101204.04;;;9.13;83.42
34073;BME280;20346;52.702;16.886;2022-10-26T05:48:54;101200.60;;;9.09;83.32
34073;BME280;20346;52.702;16.886;2022-10-26T05:51:39;101205.77;;;9.09;83.42
34073;BME280;20346;52.702;16.886;2022-10-26T05:54:24;101200.60;;;9.09;83.34
34073;BME280;20346;52.702;16.886;2022-10-26T05:57:13;101205.77;;;9.02;83.34
34073;BME280;20346;52.702;16.886;2022-10-26T05:59:58;101210.49;;;9.04;83.49
34073;BME280;20346;52.702;16.886;2022-10-26T06:02:58;101210.06;;;9.04;83.46
34073;BME280;20346;52.702;16.886;2022-10-26T06:05:59;101207.05;;;9.06;83.48
34073;BME280;20346;52.702;16.886;2022-10-26T06:08:44;101216.94;;;9.08;83.53
34073;BME280;20346;52.702;16.886;2022-10-26T06:11:31;101216.08;;;9.11;83.53
34073;BME280;20346;52.702;16.886;2022-10-26T06:14:16;101216.52;;;9.12;83.51
34073;BME280;20346;52.702;16.886;2022-10-26T06:20:22;101218.66;;;9.14;83.57
34073;BME280;20346;52.702;16.886;2022-10-26T06:26:45;101226.39;;;9.24;83.63
34073;BME280;20346;52.702;16.886;2022-10-26T06:32:44;101233.27;;;9.35;83.80
34073;BME280;20346;52.702;16.886;2022-10-26T06:38:31;101241.41;;;9.42;83.61
34073;BME280;20346;52.702;16.886;2022-10-26T06:41:18;101247.42;;;9.47;83.69
34073;BME280;20346;52.702;16.886;2022-10-26T06:44:05;101255.16;;;9.53;83.72
34073;BME280;20346;52.702;16.886;2022-10-26T06:47:08;101258.59;;;9.59;83.78
34073;BME280;20346;52.702;16.886;2022-10-26T06:53:26;101256.00;;;9.67;83.69
34073;BME280;20346;52.702;16.886;2022-10-26T06:56:19;101260.73;;;9.71;83.73
34073;BME280;20346;52.702;16.886;2022-10-26T06:59:07;101259.86;;;9.73;83.73
34073;BME280;20346;52.702;16.886;2022-10-26T07:01:54;101266.73;;;9.77;83.75
34073;BME280;20346;52.702;16.886;2022-10-26T07:04:40;101263.71;;;9.84;83.81
34073;BME280;20346;52.702;16.886;2022-10-26T07:07:27;101266.25;;;9.88;83.81
34073;BME280;20346;52.702;16.886;2022-10-26T07:10:13;101267.53;;;9.93;83.79
34073;BME280;20346;52.702;16.886;2022-10-26T07:12:58;101269.67;;;9.96;83.81
34073;BME280;20346;52.702;16.886;2022-10-26T07:15:43;101265.78;;;10.01;83.84
34073;BME280;20346;52.702;16.886;2022-10-26T07:18:28;101266.19;;;10.08;83.89
34073;BME280;20346;52.702;16.886;2022-10-26T07:21:13;101270.48;;;10.14;83.91
34073;BME280;20346;52.702;16.886;2022-10-26T07:23:58;101274.80;;;10.21;83.93
34073;BME280;20346;52.702;16.886;2022-10-26T07:26:43;101282.95;;;10.28;83.92
34073;BME280;20346;52.702;16.886;2022-10-26T07:29:28;101282.51;;;10.32;83.92
34073;BME280;20346;52.702;16.886;2022-10-26T07:32:13;101286.80;;;10.36;83.92
34073;BME280;20346;52.702;16.886;2022-10-26T07:34:58;101282.87;;;10.40;83.97
34073;BME280;20346;52.702;16.886;2022-10-26T07:37:42;101274.66;;;10.44;84.00
34073;BME280;20346;52.702;16.886;2022-10-26T07:40:28;101280.24;;;10.49;83.98
34073;BME280;20346;52.702;16.886;2022-10-26T07:43:12;101285.40;;;10.52;83.96
34073;BME280;20346;52.702;16.886;2022-10-26T07:45:57;101284.08;;;10.57;84.00
34073;BME280;20346;52.702;16.886;2022-10-26T07:48:42;101288.36;;;10.64;84.05
34073;BME280;20346;52.702;16.886;2022-10-26T07:51:28;101285.28;;;10.74;84.06
34073;BME280;20346;52.702;16.886;2022-10-26T07:54:12;101286.97;;;10.81;84.08
34073;BME280;20346;52.702;16.886;2022-10-26T07:56:57;101291.23;;;10.88;84.12
34073;BME280;20346;52.702;16.886;2022-10-26T07:59:42;101293.31;;;10.96;84.13
34073;BME280;20346;52.702;16.886;2022-10-26T08:02:27;101298.01;;;11.03;84.16
34073;BME280;20346;52.702;16.886;2022-10-26T08:05:12;101299.70;;;11.08;84.10
34073;BME280;20346;52.702;16.886;2022-10-26T08:07:57;101302.66;;;11.15;84.19
34073;BME280;20346;52.702;16.886;2022-10-26T08:10:45;101309.07;;;11.24;84.17
34073;BME280;20346;52.702;16.886;2022-10-26T08:13:30;101311.60;;;11.32;84.11
34073;BME280;20346;52.702;16.886;2022-10-26T08:16:16;101311.59;;;11.34;84.12
34073;BME280;20346;52.702;16.886;2022-10-26T08:19:01;101315.42;;;11.40;84.19
34073;BME280;20346;52.702;16.886;2022-10-26T08:21:46;101314.50;;;11.44;84.22
34073;BME280;20346;52.702;16.886;2022-10-26T08:24:31;101316.61;;;11.49;84.21
34073;BME280;20346;52.702;16.886;2022-10-26T08:27:15;101311.82;;;11.54;84.20
34073;BME280;20346;52.702;16.886;2022-10-26T08:30:00;101311.34;;;11.59;84.18
34073;BME280;20346;52.702;16.886;2022-10-26T08:32:45;101312.17;;;11.63;84.21
34073;BME280;20346;52.702;16.886;2022-10-26T08:35:30;101305.67;;;11.66;84.16
34073;BME280;20346;52.702;16.886;2022-10-26T08:38:16;101314.27;;;11.70;84.20
34073;BME280;20346;52.702;16.886;2022-10-26T08:41:06;101310.36;;;11.73;84.22
34073;BME280;20346;52.702;16.886;2022-10-26T08:43:57;101317.66;;;11.76;84.17
34073;BME280;20346;52.702;16.886;2022-10-26T08:46:48;101316.38;;;11.76;84.23
34073;BME280;20346;52.702;16.886;2022-10-26T08:49:43;101319.81;;;11.81;84.25
34073;BME280;20346;52.702;16.886;2022-10-26T08:52:55;101314.58;;;11.86;84.21
34073;BME280;20346;52.702;16.886;2022-10-26T08:55:54;101307.63;;;11.89;84.19
34073;BME280;20346;52.702;16.886;2022-10-26T08:58:41;101316.28;;;11.88;84.10
34073;BME280;20346;52.702;16.886;2022-10-26T09:01:32;101319.80;;;11.83;84.15
34073;BME280;20346;52.702;16.886;2022-10-26T09:04:19;101316.70;;;11.89;84.24
34073;BME280;20346;52.702;16.886;2022-10-26T09:13:48;101316.98;;;12.01;84.26
34073;BME280;20346;52.702;16.886;2022-10-26T09:19:45;101319.50;;;12.09;84.33
34073;BME280;20346;52.702;16.886;2022-10-26T09:22:36;101318.13;;;12.15;84.38
34073;BME280;20346;52.702;16.886;2022-10-26T09:25:39;101317.61;;;12.23;84.34
34073;BME280;20346;52.702;16.886;2022-10-26T09:28:27;101327.05;;;12.29;84.36
34073;BME280;20346;52.702;16.886;2022-10-26T09:31:16;101328.72;;;12.34;84.34
34073;BME280;20346;52.702;16.886;2022-10-26T09:34:03;101328.70;;;12.36;84.29
34073;BME280;20346;52.702;16.886;2022-10-26T09:36:52;101331.24;;;12.40;84.31
34073;BME280;20346;52.702;16.886;2022-10-26T09:39:45;101329.91;;;12.43;84.36
34073;BME280;20346;52.702;16.886;2022-10-26T09:42:45;101321.13;;;12.52;84.36
34073;BME280;20346;52.702;16.886;2022-10-26T09:45:51;101317.19;;;12.55;84.35
34073;BME280;20346;52.702;16.886;2022-10-26T09:48:38;101327.47;;;12.63;84.36
34073;BME280;20346;52.702;16.886;2022-10-26T09:51:26;101330.03;;;12.66;84.23
34073;BME280;20346;52.702;16.886;2022-10-26T09:54:16;101337.81;;;12.66;84.27
34073;BME280;20346;52.702;16.886;2022-10-26T09:57:04;101330.81;;;12.72;84.36
34073;BME280;20346;52.702;16.886;2022-10-26T09:59:51;101342.01;;;12.76;84.29
34073;BME280;20346;52.702;16.886;2022-10-26T10:02:39;101345.90;;;12.76;84.34
34073;BME280;20346;52.702;16.886;2022-10-26T10:05:30;101347.55;;;12.81;84.32
34073;BME280;20346;52.702;16.886;2022-10-26T10:08:24;101357.02;;;12.85;84.33
34073;BME280;20346;52.702;16.886;2022-10-26T10:11:12;101352.66;;;12.87;84.29
34073;BME280;20346;52.702;16.886;2022-10-26T10:14:01;101353.62;;;12.80;84.24
34073;BME280;20346;52.702;16.886;2022-10-26T10:16:56;101358.34;;;12.84;84.34
34073;BME280;20346;52.702;16.886;2022-10-26T10:19:48;101354.86;;;12.85;84.33
34073;BME280;20346;52.702;16.886;2022-10-26T10:22:33;101358.25;;;12.90;84.40
34073;BME280;20346;52.702;16.886;2022-10-26T10:25:31;101355.18;;;12.93;84.39
34073;BME280;20346;52.702;16.886;2022-10-26T10:28:21;101347.67;;;13.02;84.40
34073;BME280;20346;52.702;16.886;2022-10-26T10:31:25;101354.12;;;13.05;84.29
34073;BME280;20346;52.702;16.886;2022-10-26T10:34:15;101355.42;;;13.05;84.23
34073;BME280;20346;52.702;16.886;2022-10-26T10:37:01;101357.69;;;13.00;84.23
34073;BME280;20346;52.702;16.886;2022-10-26T10:39:46;101356.73;;;13.04;84.36
34073;BME280;20346;52.702;16.886;2022-10-26T10:42:38;101355.34;;;13.10;84.44
34073;BME280;20346;52.702;16.886;2022-10-26T10:45:23;101354.37;;;13.20;84.41
34073;BME280;20346;52.702;16.886;2022-10-26T10:48:15;101356.39;;;13.30;84.40
34073;BME280;20346;52.702;16.886;2022-10-26T10:51:07;101355.05;;;13.33;84.28
34073;BME280;20346;52.702;16.886;2022-10-26T10:53:53;101354.95;;;13.39;84.33
34073;BME280;20346;52.702;16.886;2022-10-26T10:56:49;101350.88;;;13.49;84.41
34073;BME280;20346;52.702;16.886;2022-10-26T10:59:39;101355.41;;;13.62;84.37
34073;BME280;20346;52.702;16.886;2022-10-26T11:08:38;101345.02;;;13.62;84.20
34073;BME280;20346;52.702;16.886;2022-10-26T11:12:05;101342.78;;;13.66;84.27
34073;BME280;20346;52.702;16.886;2022-10-26T11:14:53;101344.00;;;13.71;84.26
34073;BME280;20346;52.702;16.886;2022-10-26T11:20:57;101349.98;;;13.76;84.15
34073;BME280;20346;52.702;16.886;2022-10-26T11:23:47;101350.86;;;13.75;84.17
34073;BME280;20346;52.702;16.886;2022-10-26T11:26:38;101350.81;;;13.78;84.21
34073;BME280;20346;52.702;16.886;2022-10-26T11:29:37;101349.05;;;13.80;84.24
34073;BME280;20346;52.702;16.886;2022-10-26T11:38:39;101355.41;;;13.87;84.12
34073;BME280;20346;52.702;16.886;2022-10-26T11:41:39;101355.08;;;13.82;84.07
34073;BME280;20346;52.702;16.886;2022-10-26T11:44:49;101353.46;;;13.75;84.07
34073;BME280;20346;52.702;16.886;2022-10-26T11:47:45;101356.95;;;13.74;84.15
34073;BME280;20346;52.702;16.886;2022-10-26T11:50:37;101349.17;;;13.72;84.20
34073;BME280;20346;52.702;16.886;2022-10-26T11:53:27;101353.48;;;13.73;84.17
34073;BME280;20346;52.702;16.886;2022-10-26T11:56:33;101353.93;;;13.73;84.21
34073;BME280;20346;52.702;16.886;2022-10-26T11:59:21;101354.79;;;13.73;84.12
34073;BME280;20346;52.702;16.886;2022-10-26T12:02:20;101356.61;;;13.68;84.03
34073;BME280;20346;52.702;16.886;2022-10-26T12:08:13;101358.79;;;13.67;84.16
34073;BME280;20346;52.702;16.886;2022-10-26T12:11:01;101357.52;;;13.66;84.08
34073;BME280;20346;52.702;16.886;2022-10-26T12:13:56;101359.77;;;13.60;84.03
34073;BME280;20346;52.702;16.886;2022-10-26T12:17:18;101366.31;;;13.57;84.07
34073;BME280;20346;52.702;16.886;2022-10-26T12:22:33;101356.29;;;13.61;84.08
34073;BME280;20346;52.702;16.886;2022-10-26T12:25:23;101352.37;;;13.63;84.07
34073;BME280;20346;52.702;16.886;2022-10-26T12:37:35;101354.86;;;13.69;84.03
34073;BME280;20346;52.702;16.886;2022-10-26T12:49:54;101342.23;;;13.73;84.04
34073;BME280;20346;52.702;16.886;2022-10-26T12:51:58;101343.51;;;13.74;84.04
34073;BME280;20346;52.702;16.886;2022-10-26T12:54:48;101339.58;;;13.76;84.05
34073;BME280;20346;52.702;16.886;2022-10-26T13:07:17;101331.16;;;13.87;84.01
34073;BME280;20346;52.702;16.886;2022-10-26T13:13:06;101340.17;;;13.91;84.04
34073;BME280;20346;52.702;16.886;2022-10-26T13:15:56;101333.17;;;13.95;84.08
34073;BME280;20346;52.702;16.886;2022-10-26T13:18:43;101333.56;;;13.98;84.07
34073;BME280;20346;52.702;16.886;2022-10-26T13:21:28;101334.83;;;13.99;84.04
34073;BME280;20346;52.702;16.886;2022-10-26T13:24:13;101327.42;;;14.02;84.04
34073;BME280;20346;52.702;16.886;2022-10-26T13:32:55;101321.71;;;14.04;84.06
34073;BME280;20346;52.702;16.886;2022-10-26T13:35:42;101322.54;;;14.06;84.08
34073;BME280;20346;52.702;16.886;2022-10-26T13:38:31;101326.41;;;14.07;84.05
34073;BME280;20346;52.702;16.886;2022-10-26T13:41:24;101324.20;;;14.10;84.07
34073;BME280;20346;52.702;16.886;2022-10-26T13:44:32;101326.33;;;14.12;84.06
34073;BME280;20346;52.702;16.886;2022-10-26T13:47:30;101322.84;;;14.13;84.06
34073;BME280;20346;52.702;16.886;2022-10-26T13:50:52;101328.02;;;14.14;84.05
34073;BME280;20346;52.702;16.886;2022-10-26T13:56:40;101324.05;;;14.17;84.05
34073;BME280;20346;52.702;16.886;2022-10-26T13:59:36;101326.56;;;14.22;84.18
34073;BME280;20346;52.702;16.886;2022-10-26T14:02:27;101329.99;;;14.24;84.03
34073;BME280;20346;52.702;16.886;2022-10-26T14:05:15;101325.23;;;14.23;84.02
34073;BME280;20346;52.702;16.886;2022-10-26T14:08:02;101328.28;;;14.23;83.99
34073;BME280;20346;52.702;16.886;2022-10-26T14:10:55;101324.81;;;14.22;84.04
34073;BME280;20346;52.702;16.886;2022-10-26T14:13:42;101320.89;;;14.24;84.05
34073;BME280;20346;52.702;16.886;2022-10-26T14:16:29;101323.05;;;14.24;84.01
34073;BME280;20346;52.702;16.886;2022-10-26T14:19:24;101324.76;;;14.25;84.02
34073;BME280;20346;52.702;16.886;2022-10-26T14:22:16;101323.02;;;14.26;84.01
34073;BME280;20346;52.702;16.886;2022-10-26T14:25:16;101324.31;;;14.26;84.01
34073;BME280;20346;52.702;16.886;2022-10-26T14:27:52;101323.45;;;14.25;83.95
34073;BME280;20346;52.702;16.886;2022-10-26T14:30:38;101321.33;;;14.23;83.95
34073;BME280;20346;52.702;16.886;2022-10-26T14:33:26;101324.81;;;14.22;83.98
34073;BME280;20346;52.702;16.886;2022-10-26T14:36:12;101326.15;;;14.21;83.91
34073;BME280;20346;52.702;16.886;2022-10-26T14:39:06;101327.03;;;14.20;83.95
34073;BME280;20346;52.702;16.886;2022-10-26T14:41:51;101321.86;;;14.18;83.87
34073;BME280;20346;52.702;16.886;2022-10-26T14:44:37;101323.64;;;14.16;83.94
34073;BME280;20346;52.702;16.886;2022-10-26T14:47:27;101322.78;;;14.16;84.02
34073;BME280;20346;52.702;16.886;2022-10-26T14:50:19;101324.11;;;14.14;84.01
34073;BME280;20346;52.702;16.886;2022-10-26T14:53:15;101322.37;;;14.15;84.05
34073;BME280;20346;52.702;16.886;2022-10-26T14:56:03;101320.23;;;14.13;83.96
34073;BME280;20346;52.702;16.886;2022-10-26T14:58:50;101323.78;;;14.09;83.90
34073;BME280;20346;52.702;16.886;2022-10-26T15:01:46;101320.83;;;14.05;83.89
34073;BME280;20346;52.702;16.886;2022-10-26T15:04:39;101324.84;;;14.00;83.87
34073;BME280;20346;52.702;16.886;2022-10-26T15:07:34;101331.84;;;13.97;83.92
34073;BME280;20346;52.702;16.886;2022-10-26T15:13:27;101332.04;;;13.86;83.84
34073;BME280;20346;52.702;16.886;2022-10-26T15:16:21;101334.75;;;13.80;83.82
34073;BME280;20346;52.702;16.886;2022-10-26T15:19:09;101328.77;;;13.75;83.83
34073;BME280;20346;52.702;16.886;2022-10-26T15:21:55;101335.81;;;13.68;83.83
34073;BME280;20346;52.702;16.886;2022-10-26T15:24:40;101332.44;;;13.63;83.80
34073;BME280;20346;52.702;16.886;2022-10-26T15:27:25;101332.54;;;13.57;83.78
34073;BME280;20346;52.702;16.886;2022-10-26T15:30:19;101330.09;;;13.49;83.80
34073;BME280;20346;52.702;16.886;2022-10-26T15:33:17;101328.06;;;13.41;83.77
34073;BME280;20346;52.702;16.886;2022-10-26T15:36:17;101329.46;;;13.35;83.79
34073;BME280;20346;52.702;16.886;2022-10-26T15:38:59;101334.34;;;13.28;83.78
34073;BME280;20346;52.702;16.886;2022-10-26T15:41:45;101343.54;;;13.20;83.72
34073;BME280;20346;52.702;16.886;2022-10-26T15:44:31;101353.13;;;13.14;83.73
34073;BME280;20346;52.702;16.886;2022-10-26T15:47:17;101356.72;;;13.05;83.70
34073;BME280;20346;52.702;16.886;2022-10-26T15:50:03;101355.99;;;12.97;83.71
34073;BME280;20346;52.702;16.886;2022-10-26T15:52:49;101357.39;;;12.89;83.71
34073;BME280;20346;52.702;16.886;2022-10-26T15:55:45;101363.11;;;12.83;83.68
34073;BME280;20346;52.702;16.886;2022-10-26T15:58:33;101366.24;;;12.75;83.67
34073;BME280;20346;52.702;16.886;2022-10-26T16:01:20;101361.59;;;12.67;83.76
34073;BME280;20346;52.702;16.886;2022-10-26T16:04:10;101368.60;;;12.58;83.70
34073;BME280;20346;52.702;16.886;2022-10-26T16:06:55;101365.66;;;12.51;83.70
34073;BME280;20346;52.702;16.886;2022-10-26T16:09:42;101365.78;;;12.44;83.73
34073;BME280;20346;52.702;16.886;2022-10-26T16:12:27;101369.74;;;12.38;83.72
34073;BME280;20346;52.702;16.886;2022-10-26T16:15:18;101368.09;;;12.31;83.70
34073;BME280;20346;52.702;16.886;2022-10-26T16:18:04;101376.36;;;12.25;83.67
34073;BME280;20346;52.702;16.886;2022-10-26T16:20:49;101374.27;;;12.19;83.68
34073;BME280;20346;52.702;16.886;2022-10-26T16:23:34;101375.61;;;12.14;83.67
34073;BME280;20346;52.702;16.886;2022-10-26T16:26:19;101377.84;;;12.07;83.62
34073;BME280;20346;52.702;16.886;2022-10-26T16:29:04;101386.09;;;12.02;83.62
34073;BME280;20346;52.702;16.886;2022-10-26T16:31:49;101380.58;;;11.95;83.59
34073;BME280;20346;52.702;16.886;2022-10-26T16:34:34;101383.66;;;11.88;83.59
34073;BME280;20346;52.702;16.886;2022-10-26T16:37:19;101387.17;;;11.83;83.55
34073;BME280;20346;52.702;16.886;2022-10-26T16:40:05;101388.07;;;11.74;83.59